Terminal Aerodrome Forecast
Issued by NWS

Home | Current Version | Previous Version | Graphics & Text | Print | Product List | Glossary On
Versions: 1 2 3 4 5 6 7 8 9 10 11 12 13
000
FTUS45 KGGW 251700
TAFSDY
TAF
KSDY 251739Z 2518/2618 01013KT 4SM -SHSN SCT015 BKN035
     FM252100 36014KT P6SM BKN050
     FM260000 36011KT P6SM SCT150
     FM260900 36007KT P6SM FEW200
      AMD LTD TO CLD VIS AND WIND=

USA.gov is the U.S. government's official web portal to all federal, state and local government web resources and services.